Hlavní strana
METAR-TAF:

METAR-TAF

Letiště :

Tromsø, Norsko

zeměpisná šířka: 69-41N, zeměpisná délka: 018-55E, výška: 1 m

Aktuální stav počasí

Zpráva byla vytvořena před 11 minutami, v 08:50 UTC
Jižní vítr 18 kt
Teplota 8°C
Vlhkost vzduchu 66%
Tlak 1004 hPa
Viditelnost 10 km a více
Oblačno až skoro zataženo ve výšce 3700 ft

METAR: ENTC 150850Z 19018KT 9999 BKN037 08/02 Q1004 NOSIG RMK WIND 2600FT 20027KT

Čas: 10:01 (09:01 UTC)

Předpověď počasí

Předpověď platná od 15 v 06 UTC do 16 v 06 UTC
Jihojihozápadní vítr 12 kt
Viditelnost 10 km a více
Skoro jasno ve výšce 1500 ft
Oblačno až skoro zataženo ve výšce 3000 ft
slabý déšť
Dočasný
od 15 v 06 UTC do 15 v 12 UTC
Jihojihozápadní vítr 22 kt

TAF: ENTC 1506/1606 20012KT 9999 -RA FEW015 BKN030 TEMPO 1506/1512 20022KT

Stav a předpovědi počasí z více než 4 000 letišť (zprávy METAR a TAF).

Červené a žluté tečky na mapě představují dostupné meteorologické stanice.

Když kurzor umístíte na tečku, zobrazí se název stanice.

Pak kliknutím zobrazíte stav a předpověď počasí.

Chcete-li změnit mapu, kliknutím na zelené tlačítko se znaménkem +mapu přiblížíte, kliknutím na zelené tlačítko se znaménkem – mapu oddálíte a kliknutím na zelené šipky přejdete na sousední mapy.


METAR-TAF: